sensor_id;sensor_type;location;lat;lon;timestamp;P1;durP1;ratioP1;P2;durP2;ratioP2
14098;SDS011;7126;48.458;7.930;2023-03-31T00:00:56;0.25;;;0.25;;
14098;SDS011;7126;48.458;7.930;2023-03-31T00:03:24;0.35;;;0.32;;
14098;SDS011;7126;48.458;7.930;2023-03-31T00:05:56;0.70;;;0.70;;
14098;SDS011;7126;48.458;7.930;2023-03-31T00:08:23;1.40;;;0.35;;
14098;SDS011;7126;48.458;7.930;2023-03-31T00:10:56;0.43;;;0.43;;
14098;SDS011;7126;48.458;7.930;2023-03-31T00:13:24;0.68;;;0.68;;
14098;SDS011;7126;48.458;7.930;2023-03-31T00:15:55;0.50;;;0.50;;
14098;SDS011;7126;48.458;7.930;2023-03-31T00:18:25;2.55;;;0.50;;
14098;SDS011;7126;48.458;7.930;2023-03-31T00:20:52;0.45;;;0.45;;
14098;SDS011;7126;48.458;7.930;2023-03-31T00:23:18;1.00;;;0.73;;
14098;SDS011;7126;48.458;7.930;2023-03-31T00:25:54;0.40;;;0.40;;
14098;SDS011;7126;48.458;7.930;2023-03-31T00:28:20;0.80;;;0.80;;
14098;SDS011;7126;48.458;7.930;2023-03-31T00:30:46;1.48;;;0.50;;
14098;SDS011;7126;48.458;7.930;2023-03-31T00:33:12;0.55;;;0.50;;
14098;SDS011;7126;48.458;7.930;2023-03-31T00:35:38;4.03;;;0.95;;
14098;SDS011;7126;48.458;7.930;2023-03-31T00:38:04;0.40;;;0.40;;
14098;SDS011;7126;48.458;7.930;2023-03-31T00:40:32;0.90;;;0.90;;
14098;SDS011;7126;48.458;7.930;2023-03-31T00:42:59;0.63;;;0.63;;
14098;SDS011;7126;48.458;7.930;2023-03-31T00:45:26;1.88;;;1.33;;
14098;SDS011;7126;48.458;7.930;2023-03-31T00:47:54;0.55;;;0.50;;
14098;SDS011;7126;48.458;7.930;2023-03-31T00:53:31;0.60;;;0.60;;
14098;SDS011;7126;48.458;7.930;2023-03-31T00:56:00;0.90;;;0.90;;
14098;SDS011;7126;48.458;7.930;2023-03-31T00:58:31;0.30;;;0.30;;
14098;SDS011;7126;48.458;7.930;2023-03-31T01:00:57;0.98;;;0.50;;
14098;SDS011;7126;48.458;7.930;2023-03-31T01:03:26;1.17;;;1.17;;
14098;SDS011;7126;48.458;7.930;2023-03-31T01:05:59;1.67;;;0.55;;
14098;SDS011;7126;48.458;7.930;2023-03-31T01:08:29;0.52;;;0.43;;
14098;SDS011;7126;48.458;7.930;2023-03-31T01:10:57;0.55;;;0.55;;
14098;SDS011;7126;48.458;7.930;2023-03-31T01:13:26;0.77;;;0.77;;
14098;SDS011;7126;48.458;7.930;2023-03-31T01:15:53;0.20;;;0.20;;
14098;SDS011;7126;48.458;7.930;2023-03-31T01:18:19;0.75;;;0.63;;
14098;SDS011;7126;48.458;7.930;2023-03-31T01:26:46;1.48;;;0.95;;
14098;SDS011;7126;48.458;7.930;2023-03-31T01:40:23;0.40;;;0.40;;
14098;SDS011;7126;48.458;7.930;2023-03-31T01:43:09;0.85;;;0.85;;
14098;SDS011;7126;48.458;7.930;2023-03-31T01:45:57;0.60;;;0.60;;
14098;SDS011;7126;48.458;7.930;2023-03-31T01:48:32;0.85;;;0.85;;
14098;SDS011;7126;48.458;7.930;2023-03-31T01:51:13;0.40;;;0.40;;
14098;SDS011;7126;48.458;7.930;2023-03-31T01:56:45;0.50;;;0.50;;
14098;SDS011;7126;48.458;7.930;2023-03-31T01:59:28;0.32;;;0.30;;
14098;SDS011;7126;48.458;7.930;2023-03-31T02:02:07;0.70;;;0.70;;
14098;SDS011;7126;48.458;7.930;2023-03-31T02:04:40;0.40;;;0.40;;
14098;SDS011;7126;48.458;7.930;2023-03-31T02:07:12;1.02;;;1.02;;
14098;SDS011;7126;48.458;7.930;2023-03-31T02:09:42;0.38;;;0.38;;
14098;SDS011;7126;48.458;7.930;2023-03-31T02:12:11;0.40;;;0.40;;
14098;SDS011;7126;48.458;7.930;2023-03-31T02:14:39;0.32;;;0.32;;
14098;SDS011;7126;48.458;7.930;2023-03-31T02:17:09;0.60;;;0.60;;
14098;SDS011;7126;48.458;7.930;2023-03-31T02:19:42;0.50;;;0.50;;
14098;SDS011;7126;48.458;7.930;2023-03-31T02:22:10;0.70;;;0.52;;
14098;SDS011;7126;48.458;7.930;2023-03-31T02:24:38;0.60;;;0.60;;
14098;SDS011;7126;48.458;7.930;2023-03-31T02:27:08;0.75;;;0.75;;
14098;SDS011;7126;48.458;7.930;2023-03-31T02:29:52;0.13;;;0.13;;
14098;SDS011;7126;48.458;7.930;2023-03-31T02:32:35;0.68;;;0.68;;
14098;SDS011;7126;48.458;7.930;2023-03-31T02:35:03;0.50;;;0.50;;
14098;SDS011;7126;48.458;7.930;2023-03-31T02:37:31;0.43;;;0.43;;
14098;SDS011;7126;48.458;7.930;2023-03-31T02:39:58;1.38;;;1.30;;
14098;SDS011;7126;48.458;7.930;2023-03-31T02:42:26;0.50;;;0.50;;
14098;SDS011;7126;48.458;7.930;2023-03-31T02:44:52;0.85;;;0.85;;
14098;SDS011;7126;48.458;7.930;2023-03-31T02:47:19;0.60;;;0.60;;
14098;SDS011;7126;48.458;7.930;2023-03-31T02:49:50;0.45;;;0.45;;
14098;SDS011;7126;48.458;7.930;2023-03-31T03:07:10;0.50;;;0.50;;
14098;SDS011;7126;48.458;7.930;2023-03-31T03:12:31;0.30;;;0.30;;
14098;SDS011;7126;48.458;7.930;2023-03-31T03:15:32;0.68;;;0.68;;
14098;SDS011;7126;48.458;7.930;2023-03-31T03:18:04;0.43;;;0.43;;
14098;SDS011;7126;48.458;7.930;2023-03-31T03:20:30;0.32;;;0.32;;
14098;SDS011;7126;48.458;7.930;2023-03-31T03:22:58;0.60;;;0.60;;
14098;SDS011;7126;48.458;7.930;2023-03-31T03:25:23;0.88;;;0.88;;
14098;SDS011;7126;48.458;7.930;2023-03-31T03:27:49;0.80;;;0.80;;
14098;SDS011;7126;48.458;7.930;2023-03-31T03:30:17;0.70;;;0.70;;
14098;SDS011;7126;48.458;7.930;2023-03-31T03:32:43;0.60;;;0.60;;
14098;SDS011;7126;48.458;7.930;2023-03-31T03:35:08;0.50;;;0.47;;
14098;SDS011;7126;48.458;7.930;2023-03-31T03:37:35;0.60;;;0.60;;
14098;SDS011;7126;48.458;7.930;2023-03-31T03:40:01;1.23;;;1.23;;
14098;SDS011;7126;48.458;7.930;2023-03-31T03:42:29;0.68;;;0.68;;
14098;SDS011;7126;48.458;7.930;2023-03-31T03:44:55;3.15;;;1.08;;
14098;SDS011;7126;48.458;7.930;2023-03-31T03:47:21;1.02;;;0.85;;
14098;SDS011;7126;48.458;7.930;2023-03-31T03:49:46;0.68;;;0.68;;
14098;SDS011;7126;48.458;7.930;2023-03-31T03:52:13;0.47;;;0.47;;
14098;SDS011;7126;48.458;7.930;2023-03-31T03:54:39;0.60;;;0.60;;
14098;SDS011;7126;48.458;7.930;2023-03-31T03:57:04;0.70;;;0.70;;
14098;SDS011;7126;48.458;7.930;2023-03-31T03:59:31;3.72;;;1.42;;
14098;SDS011;7126;48.458;7.930;2023-03-31T04:01:56;0.60;;;0.60;;
14098;SDS011;7126;48.458;7.930;2023-03-31T04:04:22;0.98;;;0.60;;
14098;SDS011;7126;48.458;7.930;2023-03-31T04:06:48;1.50;;;1.40;;
14098;SDS011;7126;48.458;7.930;2023-03-31T04:09:13;0.95;;;0.60;;
14098;SDS011;7126;48.458;7.930;2023-03-31T04:11:39;0.55;;;0.55;;
14098;SDS011;7126;48.458;7.930;2023-03-31T04:14:05;1.23;;;1.13;;
14098;SDS011;7126;48.458;7.930;2023-03-31T04:16:30;0.80;;;0.80;;
14098;SDS011;7126;48.458;7.930;2023-03-31T04:18:58;0.80;;;0.80;;
14098;SDS011;7126;48.458;7.930;2023-03-31T04:21:27;0.45;;;0.45;;
14098;SDS011;7126;48.458;7.930;2023-03-31T04:23:54;0.50;;;0.50;;
14098;SDS011;7126;48.458;7.930;2023-03-31T04:26:26;0.77;;;0.77;;
14098;SDS011;7126;48.458;7.930;2023-03-31T04:29:03;0.90;;;0.90;;
14098;SDS011;7126;48.458;7.930;2023-03-31T04:31:31;0.60;;;0.60;;
14098;SDS011;7126;48.458;7.930;2023-03-31T04:33:57;4.30;;;1.20;;
14098;SDS011;7126;48.458;7.930;2023-03-31T04:36:26;0.50;;;0.50;;
14098;SDS011;7126;48.458;7.930;2023-03-31T04:38:55;0.60;;;0.60;;
14098;SDS011;7126;48.458;7.930;2023-03-31T04:41:21;0.80;;;0.80;;
14098;SDS011;7126;48.458;7.930;2023-03-31T04:43:48;0.88;;;0.88;;
14098;SDS011;7126;48.458;7.930;2023-03-31T04:46:14;0.52;;;0.52;;
14098;SDS011;7126;48.458;7.930;2023-03-31T04:48:40;0.85;;;0.85;;
14098;SDS011;7126;48.458;7.930;2023-03-31T04:51:06;1.75;;;0.85;;
14098;SDS011;7126;48.458;7.930;2023-03-31T04:53:32;1.48;;;1.35;;
14098;SDS011;7126;48.458;7.930;2023-03-31T04:55:58;0.70;;;0.70;;
14098;SDS011;7126;48.458;7.930;2023-03-31T04:58:24;1.35;;;1.35;;
14098;SDS011;7126;48.458;7.930;2023-03-31T05:00:50;0.73;;;0.73;;
14098;SDS011;7126;48.458;7.930;2023-03-31T05:03:16;0.95;;;0.95;;
14098;SDS011;7126;48.458;7.930;2023-03-31T05:05:42;0.80;;;0.80;;
14098;SDS011;7126;48.458;7.930;2023-03-31T05:08:07;1.70;;;1.60;;
14098;SDS011;7126;48.458;7.930;2023-03-31T05:10:33;1.70;;;1.65;;
14098;SDS011;7126;48.458;7.930;2023-03-31T05:12:58;2.53;;;0.88;;
14098;SDS011;7126;48.458;7.930;2023-03-31T05:15:24;2.40;;;1.02;;
14098;SDS011;7126;48.458;7.930;2023-03-31T05:17:50;0.90;;;0.90;;
14098;SDS011;7126;48.458;7.930;2023-03-31T05:20:16;0.70;;;0.70;;
14098;SDS011;7126;48.458;7.930;2023-03-31T05:22:43;1.15;;;1.15;;
14098;SDS011;7126;48.458;7.930;2023-03-31T05:25:10;0.88;;;0.88;;
14098;SDS011;7126;48.458;7.930;2023-03-31T05:27:38;1.42;;;1.08;;
14098;SDS011;7126;48.458;7.930;2023-03-31T05:30:04;2.38;;;0.80;;
14098;SDS011;7126;48.458;7.930;2023-03-31T05:32:32;0.50;;;0.50;;
14098;SDS011;7126;48.458;7.930;2023-03-31T05:34:57;1.48;;;1.48;;
14098;SDS011;7126;48.458;7.930;2023-03-31T05:37:23;0.73;;;0.70;;
14098;SDS011;7126;48.458;7.930;2023-03-31T05:39:50;1.75;;;1.40;;
14098;SDS011;7126;48.458;7.930;2023-03-31T05:42:16;1.17;;;1.17;;
14098;SDS011;7126;48.458;7.930;2023-03-31T05:44:42;0.95;;;0.80;;
14098;SDS011;7126;48.458;7.930;2023-03-31T05:47:08;0.63;;;0.63;;
14098;SDS011;7126;48.458;7.930;2023-03-31T05:49:33;1.88;;;1.40;;
14098;SDS011;7126;48.458;7.930;2023-03-31T05:51:59;0.52;;;0.52;;
14098;SDS011;7126;48.458;7.930;2023-03-31T05:54:25;1.55;;;0.90;;
14098;SDS011;7126;48.458;7.930;2023-03-31T05:56:51;0.80;;;0.80;;
14098;SDS011;7126;48.458;7.930;2023-03-31T05:59:17;0.70;;;0.70;;
14098;SDS011;7126;48.458;7.930;2023-03-31T06:01:42;0.82;;;0.82;;
14098;SDS011;7126;48.458;7.930;2023-03-31T06:04:08;1.00;;;1.00;;
14098;SDS011;7126;48.458;7.930;2023-03-31T06:06:34;0.80;;;0.80;;
14098;SDS011;7126;48.458;7.930;2023-03-31T06:09:02;0.98;;;0.98;;
14098;SDS011;7126;48.458;7.930;2023-03-31T06:11:28;0.63;;;0.63;;
14098;SDS011;7126;48.458;7.930;2023-03-31T06:13:54;1.10;;;0.90;;
14098;SDS011;7126;48.458;7.930;2023-03-31T06:16:19;0.85;;;0.85;;
14098;SDS011;7126;48.458;7.930;2023-03-31T06:18:45;1.50;;;0.70;;
14098;SDS011;7126;48.458;7.930;2023-03-31T06:21:12;0.85;;;0.85;;
14098;SDS011;7126;48.458;7.930;2023-03-31T06:23:40;0.90;;;0.73;;
14098;SDS011;7126;48.458;7.930;2023-03-31T06:26:10;0.65;;;0.65;;
14098;SDS011;7126;48.458;7.930;2023-03-31T06:28:37;1.05;;;0.80;;
14098;SDS011;7126;48.458;7.930;2023-03-31T06:31:07;0.22;;;0.22;;
14098;SDS011;7126;48.458;7.930;2023-03-31T06:33:38;0.70;;;0.70;;
14098;SDS011;7126;48.458;7.930;2023-03-31T06:36:05;3.97;;;1.02;;
14098;SDS011;7126;48.458;7.930;2023-03-31T06:38:32;0.55;;;0.55;;
14098;SDS011;7126;48.458;7.930;2023-03-31T06:40:59;0.68;;;0.65;;
14098;SDS011;7126;48.458;7.930;2023-03-31T06:43:24;0.40;;;0.40;;
14098;SDS011;7126;48.458;7.930;2023-03-31T06:45:54;0.93;;;0.52;;
14098;SDS011;7126;48.458;7.930;2023-03-31T06:48:20;0.40;;;0.40;;
14098;SDS011;7126;48.458;7.930;2023-03-31T06:50:47;0.50;;;0.50;;
14098;SDS011;7126;48.458;7.930;2023-03-31T06:53:13;0.22;;;0.22;;
14098;SDS011;7126;48.458;7.930;2023-03-31T06:55:39;0.68;;;0.68;;
14098;SDS011;7126;48.458;7.930;2023-03-31T06:58:05;0.30;;;0.30;;
14098;SDS011;7126;48.458;7.930;2023-03-31T07:00:31;0.60;;;0.60;;
14098;SDS011;7126;48.458;7.930;2023-03-31T07:02:57;0.38;;;0.38;;
14098;SDS011;7126;48.458;7.930;2023-03-31T07:05:23;0.40;;;0.40;;
14098;SDS011;7126;48.458;7.930;2023-03-31T07:07:53;0.40;;;0.40;;
14098;SDS011;7126;48.458;7.930;2023-03-31T07:10:19;0.50;;;0.50;;
14098;SDS011;7126;48.458;7.930;2023-03-31T07:12:45;0.35;;;0.35;;
14098;SDS011;7126;48.458;7.930;2023-03-31T07:15:11;0.30;;;0.30;;
14098;SDS011;7126;48.458;7.930;2023-03-31T07:17:37;0.75;;;0.50;;
14098;SDS011;7126;48.458;7.930;2023-03-31T07:20:06;0.30;;;0.30;;
14098;SDS011;7126;48.458;7.930;2023-03-31T07:22:42;0.20;;;0.20;;
14098;SDS011;7126;48.458;7.930;2023-03-31T07:25:08;0.20;;;0.20;;
14098;SDS011;7126;48.458;7.930;2023-03-31T07:27:35;0.65;;;0.65;;
14098;SDS011;7126;48.458;7.930;2023-03-31T07:30:05;0.20;;;0.20;;
14098;SDS011;7126;48.458;7.930;2023-03-31T07:32:31;0.30;;;0.30;;
14098;SDS011;7126;48.458;7.930;2023-03-31T07:34:57;0.73;;;0.38;;
14098;SDS011;7126;48.458;7.930;2023-03-31T07:37:23;0.25;;;0.25;;
14098;SDS011;7126;48.458;7.930;2023-03-31T07:39:49;0.30;;;0.30;;
14098;SDS011;7126;48.458;7.930;2023-03-31T07:42:15;0.28;;;0.28;;
14098;SDS011;7126;48.458;7.930;2023-03-31T07:44:40;0.30;;;0.30;;
14098;SDS011;7126;48.458;7.930;2023-03-31T07:47:06;0.13;;;0.13;;
14098;SDS011;7126;48.458;7.930;2023-03-31T07:49:32;0.10;;;0.10;;
14098;SDS011;7126;48.458;7.930;2023-03-31T07:51:58;0.10;;;0.10;;
14098;SDS011;7126;48.458;7.930;2023-03-31T07:54:24;0.00;;;0.00;;
14098;SDS011;7126;48.458;7.930;2023-03-31T07:56:51;0.20;;;0.20;;
14098;SDS011;7126;48.458;7.930;2023-03-31T07:59:17;0.28;;;0.28;;
14098;SDS011;7126;48.458;7.930;2023-03-31T08:01:42;0.40;;;0.40;;
14098;SDS011;7126;48.458;7.930;2023-03-31T08:04:08;0.47;;;0.47;;
14098;SDS011;7126;48.458;7.930;2023-03-31T08:06:35;0.30;;;0.30;;
14098;SDS011;7126;48.458;7.930;2023-03-31T08:09:02;0.20;;;0.20;;
14098;SDS011;7126;48.458;7.930;2023-03-31T08:11:29;0.20;;;0.20;;
14098;SDS011;7126;48.458;7.930;2023-03-31T08:13:55;0.20;;;0.20;;
14098;SDS011;7126;48.458;7.930;2023-03-31T08:16:21;0.15;;;0.15;;
14098;SDS011;7126;48.458;7.930;2023-03-31T08:18:46;0.70;;;0.70;;
14098;SDS011;7126;48.458;7.930;2023-03-31T08:21:12;0.40;;;0.40;;
14098;SDS011;7126;48.458;7.930;2023-03-31T08:23:38;0.20;;;0.20;;
14098;SDS011;7126;48.458;7.930;2023-03-31T08:26:13;0.10;;;0.10;;
14098;SDS011;7126;48.458;7.930;2023-03-31T08:28:43;0.25;;;0.25;;
14098;SDS011;7126;48.458;7.930;2023-03-31T08:31:10;0.20;;;0.20;;
14098;SDS011;7126;48.458;7.930;2023-03-31T08:33:36;0.98;;;0.30;;
14098;SDS011;7126;48.458;7.930;2023-03-31T08:36:05;0.30;;;0.30;;
14098;SDS011;7126;48.458;7.930;2023-03-31T08:38:34;0.30;;;0.30;;
14098;SDS011;7126;48.458;7.930;2023-03-31T08:41:05;0.22;;;0.22;;
14098;SDS011;7126;48.458;7.930;2023-03-31T08:43:41;0.10;;;0.10;;
14098;SDS011;7126;48.458;7.930;2023-03-31T08:46:10;0.10;;;0.10;;
14098;SDS011;7126;48.458;7.930;2023-03-31T08:48:41;0.22;;;0.22;;
14098;SDS011;7126;48.458;7.930;2023-03-31T08:51:55;0.40;;;0.40;;
14098;SDS011;7126;48.458;7.930;2023-03-31T08:54:04;0.40;;;0.40;;
14098;SDS011;7126;48.458;7.930;2023-03-31T08:56:34;0.30;;;0.30;;
14098;SDS011;7126;48.458;7.930;2023-03-31T08:59:04;0.30;;;0.30;;
14098;SDS011;7126;48.458;7.930;2023-03-31T09:01:48;0.20;;;0.20;;
14098;SDS011;7126;48.458;7.930;2023-03-31T09:07:06;0.20;;;0.20;;
14098;SDS011;7126;48.458;7.930;2023-03-31T09:09:49;0.20;;;0.20;;
14098;SDS011;7126;48.458;7.930;2023-03-31T09:15:11;0.45;;;0.32;;
14098;SDS011;7126;48.458;7.930;2023-03-31T09:17:46;0.30;;;0.30;;
14098;SDS011;7126;48.458;7.930;2023-03-31T09:20:24;0.40;;;0.40;;
14098;SDS011;7126;48.458;7.930;2023-03-31T09:22:57;0.20;;;0.20;;
14098;SDS011;7126;48.458;7.930;2023-03-31T09:25:33;0.15;;;0.15;;
14098;SDS011;7126;48.458;7.930;2023-03-31T09:28:02;0.10;;;0.10;;
14098;SDS011;7126;48.458;7.930;2023-03-31T09:30:33;0.40;;;0.40;;
14098;SDS011;7126;48.458;7.930;2023-03-31T09:35:58;0.63;;;0.63;;
14098;SDS011;7126;48.458;7.930;2023-03-31T09:38:30;0.20;;;0.20;;
14098;SDS011;7126;48.458;7.930;2023-03-31T09:40:56;2.88;;;0.68;;
14098;SDS011;7126;48.458;7.930;2023-03-31T09:43:25;1.27;;;0.82;;
14098;SDS011;7126;48.458;7.930;2023-03-31T09:45:52;0.17;;;0.17;;
14098;SDS011;7126;48.458;7.930;2023-03-31T09:48:19;0.40;;;0.40;;
14098;SDS011;7126;48.458;7.930;2023-03-31T09:51:02;0.10;;;0.10;;
14098;SDS011;7126;48.458;7.930;2023-03-31T09:53:37;0.28;;;0.28;;
14098;SDS011;7126;48.458;7.930;2023-03-31T09:56:12;0.52;;;0.50;;
14098;SDS011;7126;48.458;7.930;2023-03-31T09:58:55;0.30;;;0.20;;
14098;SDS011;7126;48.458;7.930;2023-03-31T10:01:26;1.08;;;0.52;;
14098;SDS011;7126;48.458;7.930;2023-03-31T10:03:53;0.50;;;0.50;;
14098;SDS011;7126;48.458;7.930;2023-03-31T10:06:20;0.68;;;0.68;;
14098;SDS011;7126;48.458;7.930;2023-03-31T10:08:49;0.70;;;0.35;;
14098;SDS011;7126;48.458;7.930;2023-03-31T10:11:19;0.20;;;0.20;;
14098;SDS011;7126;48.458;7.930;2023-03-31T10:16:14;0.20;;;0.20;;
14098;SDS011;7126;48.458;7.930;2023-03-31T10:18:54;0.28;;;0.28;;
14098;SDS011;7126;48.458;7.930;2023-03-31T10:21:22;0.60;;;0.60;;
14098;SDS011;7126;48.458;7.930;2023-03-31T10:23:50;0.17;;;0.17;;
14098;SDS011;7126;48.458;7.930;2023-03-31T10:26:26;0.00;;;0.00;;
14098;SDS011;7126;48.458;7.930;2023-03-31T10:28:52;0.05;;;0.05;;
14098;SDS011;7126;48.458;7.930;2023-03-31T10:31:19;0.20;;;0.20;;
14098;SDS011;7126;48.458;7.930;2023-03-31T10:33:58;0.10;;;0.10;;
14098;SDS011;7126;48.458;7.930;2023-03-31T10:36:28;0.10;;;0.10;;
14098;SDS011;7126;48.458;7.930;2023-03-31T10:38:55;0.20;;;0.20;;
14098;SDS011;7126;48.458;7.930;2023-03-31T10:41:25;0.20;;;0.20;;
14098;SDS011;7126;48.458;7.930;2023-03-31T10:43:54;0.13;;;0.13;;
14098;SDS011;7126;48.458;7.930;2023-03-31T10:47:15;0.05;;;0.05;;
14098;SDS011;7126;48.458;7.930;2023-03-31T10:49:15;0.00;;;0.00;;
14098;SDS011;7126;48.458;7.930;2023-03-31T10:51:48;0.10;;;0.10;;
14098;SDS011;7126;48.458;7.930;2023-03-31T10:54:15;0.00;;;0.00;;
14098;SDS011;7126;48.458;7.930;2023-03-31T10:56:45;0.10;;;0.10;;
14098;SDS011;7126;48.458;7.930;2023-03-31T11:13:21;0.28;;;0.22;;
14098;SDS011;7126;48.458;7.930;2023-03-31T11:19:09;0.10;;;0.10;;
14098;SDS011;7126;48.458;7.930;2023-03-31T11:21:48;0.00;;;0.00;;
14098;SDS011;7126;48.458;7.930;2023-03-31T11:29:55;0.10;;;0.10;;
14098;SDS011;7126;48.458;7.930;2023-03-31T11:32:47;0.10;;;0.10;;
14098;SDS011;7126;48.458;7.930;2023-03-31T11:41:15;0.25;;;0.25;;
14098;SDS011;7126;48.458;7.930;2023-03-31T11:44:04;0.10;;;0.10;;
14098;SDS011;7126;48.458;7.930;2023-03-31T11:49:17;0.10;;;0.10;;
14098;SDS011;7126;48.458;7.930;2023-03-31T11:54:32;0.10;;;0.10;;
14098;SDS011;7126;48.458;7.930;2023-03-31T11:57:00;0.20;;;0.20;;
14098;SDS011;7126;48.458;7.930;2023-03-31T11:59:28;0.10;;;0.10;;
14098;SDS011;7126;48.458;7.930;2023-03-31T12:04:49;0.28;;;0.28;;
14098;SDS011;7126;48.458;7.930;2023-03-31T12:07:22;0.00;;;0.00;;
14098;SDS011;7126;48.458;7.930;2023-03-31T12:09:58;0.13;;;0.13;;
14098;SDS011;7126;48.458;7.930;2023-03-31T12:12:54;0.10;;;0.10;;
14098;SDS011;7126;48.458;7.930;2023-03-31T12:15:39;0.60;;;0.10;;
14098;SDS011;7126;48.458;7.930;2023-03-31T12:18:11;0.25;;;0.10;;
14098;SDS011;7126;48.458;7.930;2023-03-31T12:20:50;0.15;;;0.15;;
14098;SDS011;7126;48.458;7.930;2023-03-31T12:23:21;0.20;;;0.20;;
14098;SDS011;7126;48.458;7.930;2023-03-31T12:25:51;0.15;;;0.15;;
14098;SDS011;7126;48.458;7.930;2023-03-31T12:28:23;0.20;;;0.20;;
14098;SDS011;7126;48.458;7.930;2023-03-31T12:30:51;0.10;;;0.10;;
14098;SDS011;7126;48.458;7.930;2023-03-31T12:33:26;1.23;;;0.13;;
14098;SDS011;7126;48.458;7.930;2023-03-31T12:36:13;0.30;;;0.30;;
14098;SDS011;7126;48.458;7.930;2023-03-31T12:47:10;0.10;;;0.10;;
14098;SDS011;7126;48.458;7.930;2023-03-31T12:56:06;2.08;;;0.95;;
14098;SDS011;7126;48.458;7.930;2023-03-31T12:58:36;0.28;;;0.28;;
14098;SDS011;7126;48.458;7.930;2023-03-31T13:03:48;0.10;;;0.10;;
14098;SDS011;7126;48.458;7.930;2023-03-31T13:08:56;0.20;;;0.20;;
14098;SDS011;7126;48.458;7.930;2023-03-31T13:16:36;0.73;;;0.30;;
14098;SDS011;7126;48.458;7.930;2023-03-31T13:19:02;0.20;;;0.20;;
14098;SDS011;7126;48.458;7.930;2023-03-31T13:21:27;0.20;;;0.20;;
14098;SDS011;7126;48.458;7.930;2023-03-31T13:23:53;0.10;;;0.10;;
14098;SDS011;7126;48.458;7.930;2023-03-31T13:26:34;0.10;;;0.10;;
14098;SDS011;7126;48.458;7.930;2023-03-31T13:29:09;0.10;;;0.10;;
14098;SDS011;7126;48.458;7.930;2023-03-31T13:34:30;0.10;;;0.10;;
14098;SDS011;7126;48.458;7.930;2023-03-31T13:40:04;0.20;;;0.20;;
14098;SDS011;7126;48.458;7.930;2023-03-31T13:43:01;0.20;;;0.20;;
14098;SDS011;7126;48.458;7.930;2023-03-31T13:45:53;0.43;;;0.20;;
14098;SDS011;7126;48.458;7.930;2023-03-31T14:02:04;0.30;;;0.30;;
14098;SDS011;7126;48.458;7.930;2023-03-31T14:07:30;0.65;;;0.65;;
14098;SDS011;7126;48.458;7.930;2023-03-31T14:10:00;0.10;;;0.10;;
14098;SDS011;7126;48.458;7.930;2023-03-31T14:12:32;0.20;;;0.20;;
14098;SDS011;7126;48.458;7.930;2023-03-31T14:15:02;0.20;;;0.20;;
14098;SDS011;7126;48.458;7.930;2023-03-31T14:17:30;0.10;;;0.10;;
14098;SDS011;7126;48.458;7.930;2023-03-31T14:31:25;0.10;;;0.10;;
14098;SDS011;7126;48.458;7.930;2023-03-31T14:37:00;2.17;;;0.20;;
14098;SDS011;7126;48.458;7.930;2023-03-31T14:39:34;0.35;;;0.10;;
14098;SDS011;7126;48.458;7.930;2023-03-31T14:42:05;0.10;;;0.10;;
14098;SDS011;7126;48.458;7.930;2023-03-31T14:44:45;0.10;;;0.10;;
14098;SDS011;7126;48.458;7.930;2023-03-31T14:47:22;0.40;;;0.40;;
14098;SDS011;7126;48.458;7.930;2023-03-31T14:52:48;0.15;;;0.15;;
14098;SDS011;7126;48.458;7.930;2023-03-31T14:55:16;0.20;;;0.20;;
14098;SDS011;7126;48.458;7.930;2023-03-31T14:57:46;0.50;;;0.50;;
14098;SDS011;7126;48.458;7.930;2023-03-31T15:00:15;0.10;;;0.10;;
14098;SDS011;7126;48.458;7.930;2023-03-31T15:02:49;3.40;;;0.30;;
14098;SDS011;7126;48.458;7.930;2023-03-31T15:05:24;0.55;;;0.55;;
14098;SDS011;7126;48.458;7.930;2023-03-31T15:07:58;0.38;;;0.28;;
14098;SDS011;7126;48.458;7.930;2023-03-31T15:10:32;0.20;;;0.20;;
14098;SDS011;7126;48.458;7.930;2023-03-31T15:13:09;0.25;;;0.25;;
14098;SDS011;7126;48.458;7.930;2023-03-31T15:15:39;0.08;;;0.08;;
14098;SDS011;7126;48.458;7.930;2023-03-31T15:18:05;0.00;;;0.00;;
14098;SDS011;7126;48.458;7.930;2023-03-31T15:20:34;0.10;;;0.10;;
14098;SDS011;7126;48.458;7.930;2023-03-31T15:23:02;3.00;;;0.30;;
14098;SDS011;7126;48.458;7.930;2023-03-31T15:25:42;0.20;;;0.20;;
14098;SDS011;7126;48.458;7.930;2023-03-31T15:28:12;0.20;;;0.20;;
14098;SDS011;7126;48.458;7.930;2023-03-31T15:30:41;0.45;;;0.45;;
14098;SDS011;7126;48.458;7.930;2023-03-31T15:33:15;0.25;;;0.25;;
14098;SDS011;7126;48.458;7.930;2023-03-31T15:35:45;0.05;;;0.05;;
14098;SDS011;7126;48.458;7.930;2023-03-31T15:38:12;0.00;;;0.00;;
14098;SDS011;7126;48.458;7.930;2023-03-31T15:40:41;0.03;;;0.03;;
14098;SDS011;7126;48.458;7.930;2023-03-31T15:45:45;0.00;;;0.00;;
14098;SDS011;7126;48.458;7.930;2023-03-31T15:48:16;0.00;;;0.00;;
14098;SDS011;7126;48.458;7.930;2023-03-31T15:51:01;0.10;;;0.10;;
14098;SDS011;7126;48.458;7.930;2023-03-31T15:53:46;0.15;;;0.15;;
14098;SDS011;7126;48.458;7.930;2023-03-31T15:56:23;0.00;;;0.00;;
14098;SDS011;7126;48.458;7.930;2023-03-31T15:59:22;0.10;;;0.10;;
14098;SDS011;7126;48.458;7.930;2023-03-31T16:01:52;0.30;;;0.30;;
14098;SDS011;7126;48.458;7.930;2023-03-31T16:04:20;0.57;;;0.50;;
14098;SDS011;7126;48.458;7.930;2023-03-31T16:06:48;0.10;;;0.10;;
14098;SDS011;7126;48.458;7.930;2023-03-31T16:14:52;0.10;;;0.10;;
14098;SDS011;7126;48.458;7.930;2023-03-31T16:17:24;0.10;;;0.10;;
14098;SDS011;7126;48.458;7.930;2023-03-31T16:20:05;0.10;;;0.10;;
14098;SDS011;7126;48.458;7.930;2023-03-31T16:22:38;0.10;;;0.10;;
14098;SDS011;7126;48.458;7.930;2023-03-31T16:25:11;0.10;;;0.10;;
14098;SDS011;7126;48.458;7.930;2023-03-31T16:27:40;0.00;;;0.00;;
14098;SDS011;7126;48.458;7.930;2023-03-31T16:30:10;2.13;;;0.20;;
14098;SDS011;7126;48.458;7.930;2023-03-31T16:32:38;1.45;;;0.30;;
14098;SDS011;7126;48.458;7.930;2023-03-31T16:35:22;0.10;;;0.10;;
14098;SDS011;7126;48.458;7.930;2023-03-31T16:37:47;0.30;;;0.30;;
14098;SDS011;7126;48.458;7.930;2023-03-31T16:40:18;0.10;;;0.10;;
14098;SDS011;7126;48.458;7.930;2023-03-31T16:42:44;0.55;;;0.50;;
14098;SDS011;7126;48.458;7.930;2023-03-31T16:45:09;1.10;;;1.08;;
14098;SDS011;7126;48.458;7.930;2023-03-31T16:47:36;0.98;;;0.60;;
14098;SDS011;7126;48.458;7.930;2023-03-31T16:50:02;0.40;;;0.40;;
14098;SDS011;7126;48.458;7.930;2023-03-31T16:52:31;1.77;;;0.38;;
14098;SDS011;7126;48.458;7.930;2023-03-31T16:54:56;0.38;;;0.38;;
14098;SDS011;7126;48.458;7.930;2023-03-31T16:57:22;0.52;;;0.20;;
14098;SDS011;7126;48.458;7.930;2023-03-31T16:59:48;0.10;;;0.10;;
14098;SDS011;7126;48.458;7.930;2023-03-31T17:02:13;0.30;;;0.30;;
14098;SDS011;7126;48.458;7.930;2023-03-31T17:04:39;0.20;;;0.20;;
14098;SDS011;7126;48.458;7.930;2023-03-31T17:07:05;0.10;;;0.10;;
14098;SDS011;7126;48.458;7.930;2023-03-31T17:09:31;3.15;;;0.22;;
14098;SDS011;7126;48.458;7.930;2023-03-31T17:11:56;0.10;;;0.10;;
14098;SDS011;7126;48.458;7.930;2023-03-31T17:14:22;0.30;;;0.30;;
14098;SDS011;7126;48.458;7.930;2023-03-31T17:16:48;0.13;;;0.13;;
14098;SDS011;7126;48.458;7.930;2023-03-31T17:19:14;0.15;;;0.15;;
14098;SDS011;7126;48.458;7.930;2023-03-31T17:21:41;0.10;;;0.10;;
14098;SDS011;7126;48.458;7.930;2023-03-31T17:24:07;0.10;;;0.10;;
14098;SDS011;7126;48.458;7.930;2023-03-31T17:26:32;0.20;;;0.20;;
14098;SDS011;7126;48.458;7.930;2023-03-31T17:29:00;0.40;;;0.40;;
14098;SDS011;7126;48.458;7.930;2023-03-31T17:31:25;0.73;;;0.73;;
14098;SDS011;7126;48.458;7.930;2023-03-31T17:33:51;0.15;;;0.15;;
14098;SDS011;7126;48.458;7.930;2023-03-31T17:36:16;0.03;;;0.03;;
14098;SDS011;7126;48.458;7.930;2023-03-31T17:38:42;0.10;;;0.10;;
14098;SDS011;7126;48.458;7.930;2023-03-31T17:41:09;0.10;;;0.10;;
14098;SDS011;7126;48.458;7.930;2023-03-31T17:43:36;0.32;;;0.13;;
14098;SDS011;7126;48.458;7.930;2023-03-31T17:46:03;0.20;;;0.20;;
14098;SDS011;7126;48.458;7.930;2023-03-31T17:48:31;0.32;;;0.32;;
14098;SDS011;7126;48.458;7.930;2023-03-31T17:51:02;0.20;;;0.20;;
14098;SDS011;7126;48.458;7.930;2023-03-31T17:53:32;0.25;;;0.10;;
14098;SDS011;7126;48.458;7.930;2023-03-31T17:55:58;0.17;;;0.17;;
14098;SDS011;7126;48.458;7.930;2023-03-31T17:58:25;0.00;;;0.00;;